^^
Station Historical Data
Daily Summary for January 14, 2018 Units:  Metric    English   Both
« Previous Day
Next Day »
Daily Weekly Monthly Yearly Custom
  High: Low: Average:
Temperature: -17.8 °C 21.2 °C 29.3 °C
Dew Point: -17.8 °C 0.9 °C 5.7 °C
Humidity: Humidity% 11% 24%
Wind Speed: 0km/h 13km/h 26.2km/h
Wind Gust: 0km/h - -
Wind- - SSW
Pressure: 0 hPa 1003.3 hPa -
Precipitation: 0 mm    
Historical Graphs
 
 
Tabular Data for January 14, 2018
Time Temperature Dew Point Pressure Wind Wind Speed Wind Gust Humidity Rainfall Rate (Hourly) solar Conditions
-17.8 °C -17.8 °C 0 hPa Calm     Humidity% 0 mm SolarRadiationWatts/m^2 W/m2 Conditions
09:15 25.1 °C 10.2 °C 1007.3 hPa SSW 27.4 km/h 27.4 km/h 39% 0 mm 671.0 W/m2
09:38 27.6 °C 8.9 °C 1007.3 hPa South 17.7 km/h 20.9 km/h 31% 0 mm 847.0 W/m2
09:52 27.9 °C 8.7 °C 1007 hPa South 16.3 km/h 24.1 km/h 30% 0 mm 422.0 W/m2
10:26 29.2 °C 8.8 °C 1007 hPa South 19.5 km/h 22.5 km/h 28% 0 mm 858.0 W/m2
10:51 30.1 °C 7.9 °C 1006.7 hPa SSW 24.1 km/h 29 km/h 25% 0 mm 965.0 W/m2
11:12 30.5 °C 8.2 °C 1006.7 hPa SW 20.9 km/h 25.7 km/h 25% 0 mm 847.0 W/m2
11:22 31.1 °C 8.1 °C 1006.3 hPa SW 22.7 km/h 27.4 km/h 24% 0 mm 881.0 W/m2
11:32 31.3 °C 7.7 °C 1006.3 hPa SSW 24.1 km/h 33.8 km/h 23% 0 mm 896.0 W/m2
11:45 31.9 °C 6.9 °C 1006.3 hPa SSW 24.1 km/h 25.7 km/h 21% 0 mm 918.0 W/m2
11:58 32.3 °C 6.5 °C 1006.3 hPa SW 20.9 km/h 25.7 km/h 20% 0 mm 933.0 W/m2
12:13 32.8 °C 6.1 °C 1006.3 hPa SSW 22.7 km/h 29 km/h 19% 0 mm 946.0 W/m2
12:18 33.1 °C 5.6 °C 1006.3 hPa SSW 16.3 km/h 22.5 km/h 18% 0 mm 951.0 W/m2
12:28 33.6 °C 5.2 °C 1006.3 hPa SW 17.7 km/h 25.7 km/h 17% 0 mm 953.0 W/m2
12:48 33.7 °C 5.3 °C 1006 hPa South 16.3 km/h 25.7 km/h 17% 0 mm 960.0 W/m2
12:58 33.9 °C 5.4 °C 1006 hPa SSW 13 km/h 27.4 km/h 17% 0 mm 963.0 W/m2
13:14 34.6 °C 5.1 °C 1005.6 hPa SSW 24.1 km/h 30.6 km/h 16% 0 mm 970.0 W/m2
13:39 35.1 °C 5.5 °C 1005.6 hPa SSW 20.9 km/h 27.4 km/h 16% 0 mm 993.0 W/m2
13:51 35.3 °C 4.7 °C 1005.3 hPa SSW 17.7 km/h 29 km/h 15% 0 mm 1030.0 W/m2
13:56 35.2 °C 4.7 °C 1005.3 hPa SW 19.5 km/h 25.7 km/h 15% 0 mm 962.0 W/m2
14:04 35.5 °C 4.9 °C 1005 hPa SSW 19.5 km/h 29 km/h 15% 0 mm 983.0 W/m2
14:14 35.8 °C 4.2 °C 1005 hPa SSW 19.5 km/h 33.8 km/h 14% 0 mm 923.0 W/m2
14:19 35.9 °C 4.2 °C 1004.6 hPa SSW 16.3 km/h 29 km/h 14% 0 mm 911.0 W/m2
14:29 35.9 °C 4.2 °C 1004.6 hPa South 25.9 km/h 33.8 km/h 14% 0 mm 898.0 W/m2
14:34 35.8 °C 4.2 °C 1004.6 hPa SSE 19.5 km/h 24.1 km/h 14% 0 mm 886.0 W/m2
14:39 36 °C 4.3 °C 1004.6 hPa SSW 16.3 km/h 29 km/h 14% 0 mm 877.0 W/m2
14:44 35.9 °C 4.2 °C 1004.6 hPa South 16.3 km/h 20.9 km/h 14% 0 mm 868.0 W/m2
14:49 36.2 °C 3.4 °C 1004.3 hPa South 20.9 km/h 33.8 km/h 13% 0 mm 854.0 W/m2
15:01 36.3 °C 3.5 °C 1004.3 hPa SSW 22.7 km/h 32.2 km/h 13% 0 mm 840.0 W/m2
15:07 36.2 °C 3.4 °C 1004.3 hPa South 27.4 km/h 30.6 km/h 13% 0 mm 842.0 W/m2
15:29 36.4 °C 3.6 °C 1003.9 hPa SW 24.1 km/h 33.8 km/h 13% 0 mm 788.0 W/m2
15:57 36.4 °C 3.6 °C 1003.9 hPa SSW 17.7 km/h 32.2 km/h 13% 0 mm 703.0 W/m2
16:07 36.6 °C 2.6 °C 1003.6 hPa SSW 24.1 km/h 30.6 km/h 12% 0 mm 677.0 W/m2
16:16 36.6 °C 1.4 °C 1003.6 hPa South 25.9 km/h 35.4 km/h 11% 0 mm 647.0 W/m2
16:22 36.5 °C 1.3 °C 1003.3 hPa South 32 km/h 32.2 km/h 11% 0 mm 635.0 W/m2
16:35 36.3 °C 1.1 °C 1003.3 hPa SSW 32 km/h 35.4 km/h 11% 0 mm 605.0 W/m2
16:50 36.3 °C 1.1 °C 1003.3 hPa South 28.8 km/h 37 km/h 11% 0 mm 559.0 W/m2
17:05 36 °C 0.9 °C 1003.3 hPa South 25.9 km/h 32.2 km/h 11% 0 mm 515.0 W/m2
17:34 35.1 °C 7.2 °C 1003.3 hPa SSW 33.8 km/h 37 km/h 18% 0 mm 436.0 W/m2
17:42 34.2 °C 7.3 °C 1003.3 hPa South 32 km/h 43.5 km/h 19% 0 mm 390.0 W/m2
17:53 33.8 °C 7.7 °C 1003.3 hPa SW 32 km/h 41.8 km/h 20% 0 mm 345.0 W/m2
18:04 33.4 °C 8.1 °C 1003.6 hPa SSW 38.5 km/h 38.6 km/h 21% 0 mm 304.0 W/m2
18:16 33 °C 8.5 °C 1003.6 hPa SSW 33.8 km/h 43.5 km/h 22% 0 mm 269.0 W/m2
18:46 31.7 °C 9.8 °C 1004.3 hPa SSW 30.6 km/h 40.2 km/h 26% 0 mm 153.0 W/m2
18:57 30.4 °C 9.8 °C 1004.3 hPa SSW 27.4 km/h 40.2 km/h 28% 0 mm 63.0 W/m2
19:06 30.3 °C 9.8 °C 1004.6 hPa SSW 35.2 km/h 43.5 km/h 28% 0 mm 81.0 W/m2
19:27 29.6 °C 7.5 °C 1005 hPa South 35.2 km/h 45.1 km/h 25% 0 mm 42.0 W/m2
19:40 28.7 °C 9.4 °C 1005.3 hPa South 27.4 km/h 37 km/h 30% 0 mm 21.0 W/m2
19:59 27.6 °C 9.9 °C 1005.6 hPa SSW 38.5 km/h 38.6 km/h 33% 0 mm 0.0 W/m2
20:09 27.2 °C 9.1 °C 1006 hPa SSW 25.9 km/h 37 km/h 32% 0 mm 0.0 W/m2
20:19 27 °C 8.9 °C 1006.3 hPa South 30.6 km/h 38.6 km/h 32% 0 mm 0.0 W/m2
20:32 26.8 °C 7.8 °C 1006.7 hPa South 37 km/h 40.2 km/h 30% 0 mm 0.0 W/m2
20:46 26.3 °C 5.3 °C 1007 hPa South 28.8 km/h 40.2 km/h 26% 0 mm 0.0 W/m2
20:57 26 °C 6.6 °C 1007.3 hPa South 33.8 km/h 35.4 km/h 29% 0 mm 0.0 W/m2
21:13 25.4 °C 5 °C 1007.7 hPa South 33.8 km/h 37 km/h 27% 0 mm 0.0 W/m2
21:29 24.9 °C 5.6 °C 1008 hPa South 28.8 km/h 41.8 km/h 29% 0 mm 0.0 W/m2
21:43 24.5 °C 5.8 °C 1008 hPa South 40.4 km/h 40.4 km/h 30% 0 mm 0.0 W/m2
21:56 24 °C 5.8 °C 1008.4 hPa SSW 35.2 km/h 40.2 km/h 31% 0 mm 0.0 W/m2
22:04 23.7 °C 6 °C 1008.7 hPa South 27.4 km/h 37 km/h 32% 0 mm 0.0 W/m2
22:12 23.6 °C 5.9 °C 1008.7 hPa South 27.4 km/h 40.2 km/h 32% 0 mm 0.0 W/m2
22:27 23.2 °C 6 °C 1009 hPa South 24.1 km/h 32.2 km/h 33% 0 mm 0.0 W/m2
22:32 23.1 °C 6.4 °C 1008.7 hPa South 32 km/h 35.4 km/h 34% 0 mm 0.0 W/m2
22:37 23 °C 5.9 °C 1009 hPa South 25.9 km/h 33.8 km/h 33% 0 mm 0.0 W/m2
22:42 22.9 °C 6.2 °C 1009 hPa South 30.6 km/h 38.6 km/h 34% 0 mm 0.0 W/m2
22:52 22.6 °C 6.4 °C 1009 hPa SSW 30.6 km/h 35.4 km/h 35% 0 mm 0.0 W/m2
22:57 22.4 °C 5.8 °C 1009 hPa South 24.1 km/h 33.8 km/h 34% 0 mm 0.0 W/m2
23:02 22.3 °C 6.1 °C 1009 hPa SSE 37 km/h 38.6 km/h 35% 0 mm 0.0 W/m2
23:12 22.1 °C 6.3 °C 1009.4 hPa South 22.7 km/h 35.4 km/h 36% 0 mm 0.0 W/m2
23:17 22 °C 6.6 °C 1009.4 hPa South 25.9 km/h 29 km/h 37% 0 mm 0.0 W/m2
23:27 21.8 °C 6.8 °C 1009.7 hPa South 27.4 km/h 32.2 km/h 38% 0 mm 0.0 W/m2
23:32 21.7 °C 7.1 °C 1009.7 hPa South 32 km/h 32.2 km/h 39% 0 mm 0.0 W/m2
23:42 21.5 °C 7 °C 1009.4 hPa South 30.6 km/h 35.4 km/h 39% 0 mm 0.0 W/m2
23:47 21.5 °C 5.8 °C 1009.4 hPa South 27.4 km/h 33.8 km/h 36% 0 mm 0.0 W/m2
23:52 21.4 °C 5.7 °C 1009.4 hPa SSW 41.7 km/h 41.8 km/h 36% 0 mm 0.0 W/m2
23:57 21.2 °C 6.3 °C 1009.4 hPa South 41.7 km/h 41.8 km/h 38% 0 mm 0.0 W/m2
Canyon Roadhouse, Fishriver Canyon, Namibia
Compliments of Weather Underground - 2 mb